CheckWX is a tool to help pilots better visualize weather data.  It is not intended as a substitute for an official pre-flight weather briefing.

05:43:48 UTC

CYTL METAR
Big Trout Lake Airport
Big Trout Lake, Canada
Current

44 mins ago

CYTL 200500Z AUTO 23006KT 9SM -SN OVC046 M14/M17 A2993 RMK SLP161
Observed
Feb-20 @ 05:00 UTC
Wind
  • 230° at 6 KTS
Visibility
14,484 meters
Flight Rules
VFR
Conditions
Light Snow
Cloud Levels
  • Overcast at 4,600' AGL
Temperature
-14°C / 7°F
Dewpoint
-17°C / 1°F
Humidity
78%
Altimeter
29.93" Hg
Pressure
1016.1 hPa
Previous

51 mins ago

CYTL 200453Z AUTO 22007KT 6SM -SN OVC046 M14/M17 A2993 RMK SLP162
Observed
Feb-20 @ 04:53 UTC
Wind
  • 220° at 7 KTS
Visibility
9,656 meters
Flight Rules
VFR
Conditions
Light Snow
Cloud Levels
  • Overcast at 4,600' AGL
Temperature
-14°C / 7°F
Dewpoint
-17°C / 1°F
Humidity
78%
Altimeter
29.93" Hg
Pressure
1016.2 hPa
Previous

60 mins ago

CYTL 200444Z AUTO 22007KT 5SM -SN OVC046 M14/M17 A2993 RMK SLP161
Observed
Feb-20 @ 04:44 UTC
Wind
  • 220° at 7 KTS
Visibility
8,047 meters
Flight Rules
MVFR
Conditions
Light Snow
Cloud Levels
  • Overcast at 4,600' AGL
Temperature
-14°C / 7°F
Dewpoint
-17°C / 1°F
Humidity
78%
Altimeter
29.93" Hg
Pressure
1016.1 hPa